Time;durP1;ratioP1;P1;durP2;ratioP2;P2;SDS_P1;SDS_P2;PMS_P1;PMS_P2;Temp;Humidity;BMP_temperature;BMP_pressure;BME280_temperature;BME280_humidity;BME280_pressure;Samples;Min_cycle;Max_cycle;Signal;HPM_P1;HPM_P2
2021/09/16 00:01:22;;;;;;;3.60;0.77;;;14.90;99.90;;;;;;5098770;28;20578;-65
2021/09/16 00:03:47;;;;;;;3.13;0.90;;;14.80;99.90;;;;;;5100479;28;20046;-65
2021/09/16 00:06:13;;;;;;;2.75;0.80;;;14.80;99.90;;;;;;5108056;28;20072;-64
2021/09/16 00:08:39;;;;;;;4.78;0.85;;;14.80;99.90;;;;;;5107877;28;20054;-64
2021/09/16 00:11:05;;;;;;;3.97;1.00;;;14.80;99.90;;;;;;5108230;28;20165;-65
2021/09/16 00:13:31;;;;;;;3.78;0.90;;;14.70;99.90;;;;;;5108482;28;20044;-64
2021/09/16 00:15:57;;;;;;;3.20;0.73;;;14.70;99.90;;;;;;5106704;28;20043;-65
2021/09/16 00:18:22;;;;;;;2.30;0.80;;;14.70;99.90;;;;;;5107344;28;20540;-65
2021/09/16 00:20:49;;;;;;;4.43;0.88;;;14.70;99.90;;;;;;5106904;28;20104;-65
2021/09/16 00:23:15;;;;;;;4.47;1.10;;;14.60;99.90;;;;;;5104488;28;20059;-64
2021/09/16 00:25:41;;;;;;;5.38;1.00;;;14.60;99.90;;;;;;5088179;28;20439;-65
2021/09/16 00:28:06;;;;;;;2.58;0.80;;;14.60;99.90;;;;;;5087067;28;20048;-65
2021/09/16 00:30:32;;;;;;;1.95;0.60;;;14.60;99.90;;;;;;5087759;28;20048;-64
2021/09/16 00:32:58;;;;;;;4.13;1.08;;;14.60;99.90;;;;;;5120551;27;20050;-65
2021/09/16 00:35:24;;;;;;;6.07;1.23;;;14.50;99.90;;;;;;5086901;28;20051;-65
2021/09/16 00:37:49;;;;;;;3.38;1.35;;;14.40;99.90;;;;;;5119731;28;20053;-65
2021/09/16 00:40:15;;;;;;;4.18;0.80;;;14.40;99.90;;;;;;5120296;27;20045;-65
2021/09/16 00:42:43;;;;;;;2.28;0.80;;;14.30;99.90;;;;;;5137624;27;20040;-65
2021/09/16 00:45:09;;;;;;;4.22;1.00;;;14.30;99.90;;;;;;5106862;28;20059;-65
2021/09/16 00:47:43;;;;;;;3.00;1.00;;;14.30;99.90;;;;;;5088616;28;20470;-65
2021/09/16 00:50:10;;;;;;;4.43;0.90;;;14.30;99.90;;;;;;5107420;28;20048;-64
2021/09/16 00:52:38;;;;;;;6.10;0.80;;;14.30;99.90;;;;;;5106340;28;20048;-64
2021/09/16 00:55:05;;;;;;;3.38;0.80;;;14.30;99.90;;;;;;5107177;28;20097;-64
2021/09/16 00:57:32;;;;;;;4.07;0.95;;;14.30;99.90;;;;;;5106743;28;20048;-64
2021/09/16 01:00:00;;;;;;;5.97;1.08;;;14.30;99.90;;;;;;5106228;28;20055;-65
2021/09/16 01:02:26;;;;;;;5.35;1.23;;;14.20;99.90;;;;;;5105521;28;20453;-64
2021/09/16 01:04:52;;;;;;;3.97;0.80;;;14.30;99.90;;;;;;5105339;28;20080;-65
2021/09/16 01:07:18;;;;;;;3.13;1.05;;;14.20;99.90;;;;;;5105639;28;20048;-65
2021/09/16 01:09:44;;;;;;;5.32;1.20;;;14.30;99.90;;;;;;5106977;28;20056;-64
2021/09/16 01:12:10;;;;;;;7.82;1.15;;;14.30;99.90;;;;;;5105094;28;20111;-65
2021/09/16 01:14:36;;;;;;;5.60;1.00;;;14.20;99.90;;;;;;5106729;28;20043;-65
2021/09/16 01:17:01;;;;;;;2.47;0.90;;;14.30;99.90;;;;;;5107046;28;20063;-65
2021/09/16 01:19:28;;;;;;;3.30;1.08;;;14.20;99.90;;;;;;5105157;28;20040;-65
2021/09/16 01:21:53;;;;;;;3.25;0.90;;;14.10;99.90;;;;;;5105454;28;20052;-64
2021/09/16 01:24:19;;;;;;;4.25;0.93;;;14.10;99.90;;;;;;5104379;28;20051;-65
2021/09/16 01:26:46;;;;;;;4.25;1.05;;;14.10;99.90;;;;;;5104487;28;20047;-65
2021/09/16 01:29:13;;;;;;;5.32;1.42;;;14.10;99.90;;;;;;5106285;28;20044;-65
2021/09/16 01:31:47;;;;;;;2.45;0.80;;;14.10;99.90;;;;;;5099138;28;20044;-65
2021/09/16 01:34:15;;;;;;;3.08;0.85;;;14.00;99.90;;;;;;5104069;28;20048;-65
2021/09/16 01:36:44;;;;;;;3.25;1.17;;;14.00;99.90;;;;;;5105579;28;20105;-64
2021/09/16 01:39:12;;;;;;;4.07;0.98;;;14.00;99.90;;;;;;5106160;28;20045;-64
2021/09/16 01:41:38;;;;;;;4.88;1.02;;;14.00;99.90;;;;;;5104327;28;20047;-65
2021/09/16 01:44:04;;;;;;;6.75;1.25;;;14.00;99.90;;;;;;5104677;28;20052;-64
2021/09/16 01:46:29;;;;;;;3.88;0.95;;;14.00;99.90;;;;;;5102529;28;20067;-64
2021/09/16 01:48:59;;;;;;;8.52;1.23;;;14.00;99.90;;;;;;5094133;28;20056;-65
2021/09/16 01:51:24;;;;;;;4.07;0.87;;;14.00;99.90;;;;;;5104740;28;20438;-64
2021/09/16 01:53:50;;;;;;;4.93;1.38;;;14.00;99.90;;;;;;5105205;28;20048;-64
2021/09/16 01:56:16;;;;;;;3.35;1.00;;;14.00;99.90;;;;;;5104125;28;20090;-65
2021/09/16 01:58:41;;;;;;;3.83;0.88;;;14.00;99.90;;;;;;5104551;28;20048;-64
2021/09/16 02:01:08;;;;;;;3.38;1.00;;;14.00;99.90;;;;;;5104934;28;20134;-64
2021/09/16 02:03:33;;;;;;;4.63;1.08;;;14.00;99.90;;;;;;5105121;28;20052;-65
2021/09/16 02:05:59;;;;;;;2.75;0.80;;;14.00;99.90;;;;;;5105724;28;20491;-64
2021/09/16 02:08:25;;;;;;;3.83;0.82;;;14.00;99.90;;;;;;5104926;28;20062;-65
2021/09/16 02:10:51;;;;;;;3.67;1.08;;;14.00;99.90;;;;;;5104618;28;20047;-65
2021/09/16 02:13:16;;;;;;;3.47;1.00;;;14.00;99.90;;;;;;5105213;28;20055;-65
2021/09/16 02:15:42;;;;;;;4.55;1.20;;;14.10;99.90;;;;;;5105071;28;20043;-64
2021/09/16 02:18:08;;;;;;;8.27;1.17;;;14.10;99.90;;;;;;5098958;28;20046;-64
2021/09/16 02:20:34;;;;;;;4.45;0.90;;;14.10;99.90;;;;;;5097117;28;20676;-65
2021/09/16 02:23:00;;;;;;;6.43;1.58;;;14.10;99.90;;;;;;5105555;28;20047;-65
2021/09/16 02:25:26;;;;;;;5.72;0.90;;;14.10;99.90;;;;;;5103412;28;20040;-64
2021/09/16 02:27:51;;;;;;;4.72;1.10;;;14.10;99.90;;;;;;5103531;28;20036;-65
2021/09/16 02:30:17;;;;;;;6.40;1.50;;;14.20;99.90;;;;;;5097384;28;20044;-64
2021/09/16 02:32:43;;;;;;;4.90;1.10;;;14.20;99.90;;;;;;5103453;28;20044;-65
2021/09/16 02:35:11;;;;;;;5.03;1.33;;;14.30;99.90;;;;;;5104717;28;20081;-64
2021/09/16 02:37:37;;;;;;;5.35;1.20;;;14.30;99.90;;;;;;5105282;28;20118;-65
2021/09/16 02:40:04;;;;;;;3.90;1.20;;;14.40;99.90;;;;;;5105186;28;20058;-64
2021/09/16 02:42:29;;;;;;;7.38;1.27;;;14.40;99.90;;;;;;5103757;28;20048;-65
2021/09/16 02:44:55;;;;;;;5.72;1.25;;;14.40;99.90;;;;;;5103595;28;20066;-65
2021/09/16 02:47:21;;;;;;;4.05;1.00;;;14.40;99.90;;;;;;5086329;28;20070;-65
2021/09/16 02:49:47;;;;;;;9.35;1.55;;;14.50;99.90;;;;;;5104886;28;20055;-64
2021/09/16 02:52:12;;;;;;;7.05;1.63;;;14.50;99.90;;;;;;5104742;28;20044;-64
2021/09/16 02:54:38;;;;;;;4.43;1.40;;;14.50;99.90;;;;;;5105343;28;20066;-65
2021/09/16 02:57:04;;;;;;;5.47;1.67;;;14.60;99.90;;;;;;5087111;28;20044;-65
2021/09/16 02:59:29;;;;;;;3.75;1.10;;;14.60;99.90;;;;;;5104010;28;20040;-65
2021/09/16 03:01:55;;;;;;;6.07;1.40;;;14.70;99.90;;;;;;5103361;28;20044;-64
2021/09/16 03:04:21;;;;;;;5.18;1.60;;;14.70;99.90;;;;;;5104795;28;20047;-64
2021/09/16 03:06:46;;;;;;;5.65;1.48;;;14.70;99.90;;;;;;5104659;28;20054;-65
2021/09/16 03:09:12;;;;;;;5.15;1.58;;;14.60;99.90;;;;;;5103603;28;20060;-64
2021/09/16 03:11:38;;;;;;;5.78;1.50;;;14.60;99.90;;;;;;5103525;28;20084;-64
2021/09/16 03:14:04;;;;;;;7.22;1.80;;;14.70;99.90;;;;;;5104743;28;20044;-64
2021/09/16 03:16:30;;;;;;;5.18;1.63;;;14.70;99.90;;;;;;5103180;28;20098;-64
2021/09/16 03:18:56;;;;;;;7.28;1.90;;;14.80;99.90;;;;;;5103495;28;20056;-64
2021/09/16 03:21:21;;;;;;;6.18;1.63;;;14.80;99.90;;;;;;5104694;28;20046;-65
2021/09/16 03:23:47;;;;;;;7.65;1.60;;;14.80;99.90;;;;;;5101838;28;20048;-64
2021/09/16 03:26:13;;;;;;;7.45;1.70;;;14.80;99.90;;;;;;5084978;28;20071;-65
2021/09/16 03:28:40;;;;;;;7.05;1.83;;;14.80;99.90;;;;;;5085056;28;20113;-64
2021/09/16 03:31:06;;;;;;;5.82;2.45;;;14.80;99.90;;;;;;5113429;28;20075;-65
2021/09/16 03:33:32;;;;;;;6.93;1.98;;;14.80;99.90;;;;;;5089995;28;20044;-65
2021/09/16 03:35:58;;;;;;;5.57;1.88;;;14.80;99.90;;;;;;5103381;28;20047;-64
2021/09/16 03:38:24;;;;;;;5.50;1.80;;;14.70;99.90;;;;;;5104566;28;20040;-64
2021/09/16 03:40:50;;;;;;;3.35;1.98;;;14.80;99.90;;;;;;5103953;28;20047;-65
2021/09/16 03:43:15;;;;;;;3.55;1.80;;;14.80;99.90;;;;;;5098688;28;20048;-65
2021/09/16 03:45:41;;;;;;;5.90;2.33;;;14.80;99.90;;;;;;5095459;28;20125;-65
2021/09/16 03:48:07;;;;;;;5.38;1.83;;;14.80;99.90;;;;;;5103558;28;20048;-65
2021/09/16 03:50:34;;;;;;;8.20;2.20;;;14.90;99.90;;;;;;5104312;28;20032;-64
2021/09/16 03:53:00;;;;;;;6.80;2.05;;;14.90;99.90;;;;;;5102869;28;20044;-65
2021/09/16 03:55:26;;;;;;;5.60;2.22;;;14.90;99.90;;;;;;5103208;28;20093;-65
2021/09/16 03:57:52;;;;;;;5.63;2.10;;;14.80;99.90;;;;;;5105134;28;20093;-65
2021/09/16 04:00:18;;;;;;;9.10;2.47;;;14.80;99.90;;;;;;5107211;28;20454;-64
2021/09/16 04:02:44;;;;;;;7.85;2.65;;;14.80;99.90;;;;;;5106694;28;20080;-64
2021/09/16 04:05:09;;;;;;;4.72;2.30;;;14.90;99.90;;;;;;5106846;28;20138;-65
2021/09/16 04:07:35;;;;;;;3.78;2.85;;;14.90;99.90;;;;;;5107373;28;20047;-65
2021/09/16 04:10:01;;;;;;;7.47;2.50;;;14.90;99.90;;;;;;5107798;28;20040;-65
2021/09/16 04:12:27;;;;;;;9.63;3.05;;;14.80;99.90;;;;;;5107899;28;20040;-64
2021/09/16 04:14:53;;;;;;;6.85;3.10;;;14.80;99.90;;;;;;5107883;28;20041;-64
2021/09/16 04:17:18;;;;;;;5.20;2.60;;;14.80;99.90;;;;;;5107348;28;20040;-64
2021/09/16 04:19:44;;;;;;;6.40;3.28;;;14.80;99.90;;;;;;5098067;28;20523;-65
2021/09/16 04:22:10;;;;;;;8.43;2.88;;;14.80;99.90;;;;;;5102584;28;20047;-65
2021/09/16 04:24:36;;;;;;;7.05;3.08;;;14.80;99.90;;;;;;5106119;28;20099;-64
2021/09/16 04:27:02;;;;;;;6.68;2.80;;;14.80;99.90;;;;;;5105972;28;20040;-65
2021/09/16 04:29:28;;;;;;;6.55;3.00;;;14.80;99.90;;;;;;5106019;28;20824;-65
2021/09/16 04:31:55;;;;;;;8.30;3.42;;;14.80;99.90;;;;;;5102062;28;20040;-64
2021/09/16 04:34:22;;;;;;;7.95;2.72;;;14.80;99.90;;;;;;5106387;28;20052;-64
2021/09/16 04:36:48;;;;;;;7.40;3.20;;;14.70;99.90;;;;;;5106790;28;20123;-64
2021/09/16 04:39:14;;;;;;;9.52;3.60;;;14.70;99.90;;;;;;5106346;28;20055;-64
2021/09/16 04:41:40;;;;;;;6.07;3.05;;;14.70;99.90;;;;;;5096698;28;20118;-65
2021/09/16 04:44:05;;;;;;;7.95;3.33;;;14.80;99.90;;;;;;5106206;28;20655;-65
2021/09/16 04:46:31;;;;;;;7.93;3.92;;;14.80;99.90;;;;;;5096547;28;20059;-64
2021/09/16 04:48:57;;;;;;;13.82;3.88;;;14.80;99.90;;;;;;5105924;28;20091;-64
2021/09/16 04:51:23;;;;;;;7.00;2.88;;;14.70;99.90;;;;;;5103446;28;20044;-65
2021/09/16 04:53:49;;;;;;;8.13;3.50;;;14.70;99.90;;;;;;5104032;28;20044;-66
2021/09/16 04:56:14;;;;;;;5.90;2.90;;;14.70;99.90;;;;;;5102491;28;20047;-65
2021/09/16 04:58:40;;;;;;;9.70;3.35;;;14.70;99.90;;;;;;5084256;28;20048;-65
2021/09/16 05:01:06;;;;;;;9.45;3.50;;;14.70;99.90;;;;;;5104703;28;20051;-66
2021/09/16 05:03:32;;;;;;;7.93;3.65;;;14.70;99.90;;;;;;5088203;28;20032;-65
2021/09/16 05:05:58;;;;;;;6.95;3.38;;;14.70;99.90;;;;;;5106040;28;20028;-65
2021/09/16 05:08:24;;;;;;;7.57;3.53;;;14.70;99.90;;;;;;5104392;28;20960;-65
2021/09/16 05:10:49;;;;;;;10.35;3.55;;;14.70;99.90;;;;;;5086397;28;20046;-65
2021/09/16 05:13:15;;;;;;;8.30;3.20;;;14.70;99.90;;;;;;5103550;28;20075;-66
2021/09/16 05:15:41;;;;;;;12.18;4.00;;;14.80;99.90;;;;;;5103517;28;20087;-65
2021/09/16 05:18:07;;;;;;;10.85;4.15;;;14.80;99.90;;;;;;5102497;28;20070;-65
2021/09/16 05:20:34;;;;;;;9.10;4.10;;;14.80;99.90;;;;;;5102864;28;20066;-65
2021/09/16 05:23:00;;;;;;;9.45;3.63;;;14.70;99.90;;;;;;5102672;28;20123;-66
2021/09/16 05:25:26;;;;;;;9.20;4.05;;;14.80;99.90;;;;;;5103536;28;20084;-66
2021/09/16 05:27:52;;;;;;;8.57;4.40;;;14.80;99.90;;;;;;5103030;28;20054;-65
2021/09/16 05:30:19;;;;;;;8.30;4.03;;;14.80;99.90;;;;;;5104090;28;20055;-65
2021/09/16 05:32:44;;;;;;;7.97;3.97;;;14.80;99.90;;;;;;5104447;28;20459;-64
2021/09/16 05:35:11;;;;;;;10.35;4.57;;;14.80;99.90;;;;;;5103960;28;20040;-66
2021/09/16 05:37:37;;;;;;;6.57;3.83;;;14.80;99.90;;;;;;5103382;28;20044;-64
2021/09/16 05:40:04;;;;;;;11.32;4.00;;;14.80;99.90;;;;;;5040890;28;20067;-63
2021/09/16 05:42:30;;;;;;;11.13;4.57;;;14.90;99.90;;;;;;5093346;27;20080;-63
2021/09/16 05:44:56;;;;;;;10.30;4.40;;;14.90;99.90;;;;;;5106808;28;21591;-63
2021/09/16 05:47:22;;;;;;;9.82;4.65;;;14.90;99.90;;;;;;5102130;27;20391;-63
2021/09/16 05:49:48;;;;;;;11.23;4.97;;;14.90;99.90;;;;;;5098710;27;20366;-64
2021/09/16 05:52:14;;;;;;;9.82;4.93;;;14.90;99.90;;;;;;5104928;28;20046;-63
2021/09/16 05:54:40;;;;;;;10.52;5.20;;;14.90;99.90;;;;;;5078956;27;20083;-63
2021/09/16 05:57:06;;;;;;;11.60;4.68;;;15.00;99.90;;;;;;5113983;27;20073;-63
2021/09/16 05:59:32;;;;;;;11.02;5.38;;;15.00;99.90;;;;;;5097094;27;20059;-63
2021/09/16 06:02:00;;;;;;;10.85;5.05;;;15.00;99.90;;;;;;5109634;28;20055;-62
2021/09/16 06:04:26;;;;;;;8.05;4.75;;;15.00;99.90;;;;;;5060517;27;20569;-63
2021/09/16 06:06:52;;;;;;;8.13;4.60;;;15.10;99.90;;;;;;5120631;27;20051;-62
2021/09/16 06:09:18;;;;;;;11.02;5.50;;;15.10;99.90;;;;;;5088698;27;20059;-62
2021/09/16 06:11:44;;;;;;;8.13;4.57;;;15.10;99.90;;;;;;5120479;27;20055;-63
2021/09/16 06:14:09;;;;;;;9.02;5.05;;;15.20;99.90;;;;;;5087376;27;20047;-63
2021/09/16 06:16:35;;;;;;;8.60;4.60;;;15.20;99.90;;;;;;5121993;27;20101;-62
2021/09/16 06:19:01;;;;;;;10.57;5.05;;;15.20;99.90;;;;;;5086002;28;20037;-63
2021/09/16 06:21:27;;;;;;;14.68;5.47;;;15.20;99.90;;;;;;5107051;28;20067;-62
2021/09/16 06:23:53;;;;;;;8.98;4.88;;;15.20;99.90;;;;;;5112411;28;20048;-64
2021/09/16 06:26:20;;;;;;;12.30;4.60;;;15.20;99.90;;;;;;5101919;27;20073;-63
2021/09/16 06:28:46;;;;;;;11.30;4.72;;;15.20;99.90;;;;;;5093982;28;20445;-62
2021/09/16 06:31:13;;;;;;;10.10;5.05;;;15.30;99.90;;;;;;5103430;27;20051;-62
2021/09/16 06:33:39;;;;;;;9.88;5.18;;;15.30;99.90;;;;;;5096273;28;20715;-62
2021/09/16 06:36:05;;;;;;;8.38;5.05;;;15.30;99.90;;;;;;5119784;27;20411;-66
2021/09/16 06:38:32;;;;;;;9.23;4.82;;;15.40;99.90;;;;;;5096599;28;20056;-63
2021/09/16 06:40:57;;;;;;;15.75;6.00;;;15.50;99.90;;;;;;5093761;27;20130;-63
2021/09/16 06:43:23;;;;;;;9.68;5.18;;;15.40;99.90;;;;;;5094848;28;20072;-63
2021/09/16 06:45:49;;;;;;;9.85;5.50;;;15.50;99.90;;;;;;5100521;27;20043;-63
2021/09/16 06:48:15;;;;;;;9.23;5.28;;;15.50;99.90;;;;;;5100171;28;20198;-63
2021/09/16 06:50:41;;;;;;;7.30;4.50;;;15.50;99.90;;;;;;5098946;27;20046;-63
2021/09/16 06:53:07;;;;;;;9.90;5.30;;;15.50;99.90;;;;;;5097685;28;20051;-63
2021/09/16 06:55:33;;;;;;;13.55;4.65;;;15.60;99.90;;;;;;5098280;27;20111;-63
2021/09/16 06:57:58;;;;;;;6.97;4.18;;;15.60;99.90;;;;;;5091111;28;20053;-63
2021/09/16 07:00:24;;;;;;;9.38;4.25;;;15.70;99.90;;;;;;5081413;28;20043;-63
2021/09/16 07:02:50;;;;;;;10.27;4.65;;;15.70;99.90;;;;;;5090878;28;20086;-63
2021/09/16 07:05:17;;;;;;;9.35;4.40;;;15.70;99.90;;;;;;5082596;28;20058;-63
2021/09/16 07:07:42;;;;;;;9.60;4.35;;;15.80;99.90;;;;;;5067990;28;20063;-63
2021/09/16 07:10:09;;;;;;;6.70;4.03;;;15.80;99.90;;;;;;5086763;27;20466;-63
2021/09/16 07:12:35;;;;;;;9.60;3.65;;;15.80;99.90;;;;;;5099710;28;20496;-63
2021/09/16 07:15:02;;;;;;;6.63;3.42;;;15.90;99.90;;;;;;5095399;27;20670;-64
2021/09/16 07:17:28;;;;;;;8.02;3.58;;;15.90;99.90;;;;;;5106028;28;20129;-64
2021/09/16 07:19:54;;;;;;;9.30;3.72;;;15.90;99.90;;;;;;5088031;28;20039;-63
2021/09/16 07:22:22;;;;;;;9.27;3.42;;;16.00;99.90;;;;;;5105361;28;20044;-64
2021/09/16 07:24:48;;;;;;;11.07;4.53;;;16.00;99.90;;;;;;5088838;27;20043;-63
2021/09/16 07:27:14;;;;;;;9.23;3.75;;;16.00;99.90;;;;;;5089291;28;20761;-63
2021/09/16 07:29:40;;;;;;;7.93;3.30;;;16.10;99.90;;;;;;5090916;27;20045;-64
2021/09/16 07:32:06;;;;;;;6.57;3.40;;;16.10;99.90;;;;;;5122539;27;20071;-63
2021/09/16 07:34:32;;;;;;;7.95;3.17;;;16.20;99.90;;;;;;5090447;27;20044;-64
2021/09/16 07:36:58;;;;;;;5.68;2.97;;;16.20;99.90;;;;;;5112611;28;20054;-64
2021/09/16 07:39:24;;;;;;;8.43;3.17;;;16.20;99.90;;;;;;5076689;28;20056;-64
2021/09/16 07:41:51;;;;;;;7.90;2.80;;;16.20;99.90;;;;;;5114266;28;20109;-63
2021/09/16 07:44:18;;;;;;;7.97;3.30;;;16.30;99.90;;;;;;5100285;28;20524;-64
2021/09/16 07:46:45;;;;;;;7.10;3.05;;;16.30;99.90;;;;;;5087508;27;20396;-64
2021/09/16 07:49:11;;;;;;;6.70;2.97;;;16.30;99.90;;;;;;5129008;27;20048;-63
2021/09/16 07:51:37;;;;;;;7.72;2.72;;;16.30;99.90;;;;;;5119579;27;20062;-65
2021/09/16 07:54:03;;;;;;;7.28;2.88;;;16.30;99.90;;;;;;5096882;28;20510;-64
2021/09/16 07:56:29;;;;;;;7.82;3.15;;;16.40;99.90;;;;;;5112820;27;20098;-63
2021/09/16 07:58:55;;;;;;;13.20;2.97;;;16.40;99.90;;;;;;5096973;28;20130;-64
2021/09/16 08:01:21;;;;;;;9.30;3.38;;;16.40;99.90;;;;;;5118744;27;20083;-63
2021/09/16 08:03:47;;;;;;;9.50;2.90;;;16.40;99.90;;;;;;5096045;27;20048;-63
2021/09/16 08:06:14;;;;;;;8.25;3.00;;;16.40;99.90;;;;;;5090082;28;20081;-63
2021/09/16 08:08:40;;;;;;;8.50;3.10;;;16.40;99.90;;;;;;5078420;28;20115;-64
2021/09/16 08:11:06;;;;;;;5.43;2.70;;;16.50;99.90;;;;;;5105363;27;20047;-63
2021/09/16 08:13:32;;;;;;;8.27;3.10;;;16.50;99.90;;;;;;5100007;28;20048;-63
2021/09/16 08:15:58;;;;;;;7.65;3.10;;;16.50;99.90;;;;;;5099095;28;20104;-63
2021/09/16 08:18:24;;;;;;;7.68;2.60;;;16.60;99.90;;;;;;5093294;28;20048;-63
2021/09/16 08:20:50;;;;;;;8.15;3.38;;;16.70;99.90;;;;;;5091211;27;20043;-63
2021/09/16 08:23:17;;;;;;;7.80;3.13;;;16.70;99.90;;;;;;5098860;28;20041;-63
2021/09/16 08:25:44;;;;;;;7.43;3.50;;;16.80;99.90;;;;;;5087833;27;20080;-63
2021/09/16 08:28:10;;;;;;;5.65;2.72;;;16.80;99.90;;;;;;5089975;28;20039;-64
2021/09/16 08:30:36;;;;;;;7.53;3.15;;;16.90;99.90;;;;;;5100187;27;20085;-64
2021/09/16 08:33:03;;;;;;;9.73;2.90;;;16.90;99.90;;;;;;5089633;28;20328;-64
2021/09/16 08:35:28;;;;;;;6.10;2.60;;;16.90;99.90;;;;;;5088852;27;20047;-63
2021/09/16 08:37:54;;;;;;;9.75;3.40;;;17.00;99.90;;;;;;5099681;27;20048;-63
2021/09/16 08:40:22;;;;;;;7.85;2.95;;;17.10;99.90;;;;;;5066810;28;20063;-63
2021/09/16 08:42:49;;;;;;;7.53;3.05;;;17.20;99.90;;;;;;5103090;28;20048;-63
2021/09/16 08:45:17;;;;;;;7.65;2.88;;;17.20;99.90;;;;;;5089197;27;20047;-63
2021/09/16 08:47:45;;;;;;;8.25;3.05;;;17.10;99.90;;;;;;5114239;27;20883;-63
2021/09/16 08:50:14;;;;;;;8.30;2.90;;;17.10;99.90;;;;;;5084790;27;20389;-63
2021/09/16 08:52:42;;;;;;;7.93;2.95;;;17.10;99.90;;;;;;5090922;28;20098;-64
2021/09/16 08:55:10;;;;;;;12.27;3.28;;;17.00;99.90;;;;;;5075957;27;20092;-63
2021/09/16 08:57:41;;;;;;;7.97;3.00;;;17.10;99.90;;;;;;5102717;28;20051;-63
2021/09/16 09:00:16;;;;;;;7.97;2.75;;;17.10;99.90;;;;;;5056319;28;20048;-63
2021/09/16 09:02:47;;;;;;;6.78;2.95;;;17.10;99.90;;;;;;5105816;28;20048;-63
2021/09/16 09:05:14;;;;;;;10.63;2.83;;;17.20;99.90;;;;;;5096803;27;20070;-63
2021/09/16 09:07:43;;;;;;;8.25;3.17;;;17.20;99.90;;;;;;5094622;28;20522;-63
2021/09/16 09:10:29;;;;;;;7.15;2.75;;;17.30;99.90;;;;;;5072937;28;20150;-63
2021/09/16 09:12:55;;;;;;;7.75;2.65;;;17.30;99.90;;;;;;5099802;28;20048;-63
2021/09/16 09:15:21;;;;;;;8.43;3.00;;;17.40;99.90;;;;;;5094332;27;20074;-64
2021/09/16 09:18:11;;;;;;;8.88;2.60;;;17.40;99.90;;;;;;5078692;28;20048;-63
2021/09/16 09:20:59;;;;;;;10.55;3.17;;;17.40;99.90;;;;;;5088800;27;20053;-63
2021/09/16 09:23:34;;;;;;;6.25;2.58;;;17.50;99.90;;;;;;5087630;28;20044;-63
2021/09/16 09:26:20;;;;;;;11.25;2.63;;;17.60;99.90;;;;;;5095585;27;20054;-63
2021/09/16 09:28:46;;;;;;;11.20;3.05;;;17.60;99.90;;;;;;5103049;27;20047;-64
2021/09/16 09:31:21;;;;;;;6.50;1.90;;;17.50;99.90;;;;;;5101933;27;20047;-64
2021/09/16 09:33:47;;;;;;;6.95;2.70;;;17.50;99.90;;;;;;5097979;28;20499;-63
2021/09/16 09:36:18;;;;;;;6.05;1.63;;;17.40;99.90;;;;;;5109931;27;20088;-63
2021/09/16 09:39:01;;;;;;;6.53;2.35;;;17.40;99.90;;;;;;5104981;27;20055;-63
2021/09/16 09:41:37;;;;;;;6.90;1.98;;;17.40;99.90;;;;;;5076809;27;20051;-63
2021/09/16 09:44:08;;;;;;;11.27;2.97;;;17.60;99.90;;;;;;5084248;28;20504;-63
2021/09/16 09:46:54;;;;;;;5.38;2.38;;;17.70;99.90;;;;;;5110329;27;20047;-64
2021/09/16 09:49:25;;;;;;;6.40;1.95;;;17.80;99.90;;;;;;5108666;28;20045;-63
2021/09/16 09:51:57;;;;;;;4.72;1.80;;;17.70;99.90;;;;;;5113159;27;20146;-63
2021/09/16 09:54:32;;;;;;;6.80;2.00;;;17.70;99.90;;;;;;5095631;28;20046;-63
2021/09/16 09:57:14;;;;;;;9.40;2.22;;;17.60;99.90;;;;;;5089685;27;20078;-63
2021/09/16 10:00:09;;;;;;;8.60;1.77;;;17.60;99.90;;;;;;5085595;28;20079;-63
2021/09/16 10:02:55;;;;;;;5.07;1.90;;;17.70;99.90;;;;;;5049353;28;20086;-63
2021/09/16 10:05:30;;;;;;;5.90;2.13;;;17.80;99.90;;;;;;5076945;27;20069;-63
2021/09/16 10:07:57;;;;;;;5.50;2.00;;;17.80;99.90;;;;;;5108964;28;20077;-63
2021/09/16 10:10:26;;;;;;;7.82;2.28;;;17.80;99.90;;;;;;5090560;27;20054;-63
2021/09/16 10:12:53;;;;;;;4.80;2.10;;;18.00;99.90;;;;;;5104194;28;20063;-63
2021/09/16 10:15:22;;;;;;;7.97;2.28;;;18.40;99.90;;;;;;5078793;27;20057;-64
2021/09/16 10:17:51;;;;;;;5.63;1.67;;;18.60;99.90;;;;;;5097969;28;20063;-63
2021/09/16 10:20:20;;;;;;;4.05;1.55;;;18.70;99.90;;;;;;5120667;27;20055;-63
2021/09/16 10:22:49;;;;;;;6.10;1.50;;;18.70;99.90;;;;;;5099651;28;20052;-63
2021/09/16 10:25:18;;;;;;;9.40;1.75;;;18.70;99.90;;;;;;5083416;27;20186;-63
2021/09/16 10:27:57;;;;;;;7.40;1.33;;;18.50;99.90;;;;;;5099209;28;20048;-63
2021/09/16 10:30:23;;;;;;;3.33;1.40;;;18.40;99.90;;;;;;5075835;28;20115;-63
2021/09/16 10:33:14;;;;;;;6.93;1.63;;;18.20;99.90;;;;;;5112820;27;20079;-63
2021/09/16 10:35:47;;;;;;;4.78;1.70;;;18.00;99.90;;;;;;5074548;28;20044;-63
2021/09/16 10:38:39;;;;;;;3.15;1.40;;;17.90;99.90;;;;;;5098939;28;20251;-63
2021/09/16 10:41:12;;;;;;;3.03;1.20;;;17.90;99.90;;;;;;5094722;27;20071;-64
2021/09/16 10:43:39;;;;;;;3.88;2.08;;;17.80;99.90;;;;;;5091420;28;20052;-63
2021/09/16 10:46:35;;;;;;;5.97;1.30;;;17.70;99.90;;;;;;5097344;27;20050;-63
2021/09/16 10:49:19;;;;;;;3.92;1.27;;;17.70;99.90;;;;;;5094955;28;20051;-64
2021/09/16 10:51:47;;;;;;;4.40;1.15;;;17.80;99.90;;;;;;5100823;27;20075;-63
2021/09/16 10:54:38;;;;;;;4.88;1.48;;;17.70;99.90;;;;;;5095077;28;20105;-63
2021/09/16 10:57:11;;;;;;;3.97;1.48;;;17.80;99.90;;;;;;5095613;27;20288;-63
2021/09/16 10:59:52;;;;;;;4.90;1.23;;;17.90;99.90;;;;;;5092585;28;20051;-63
2021/09/16 11:02:22;;;;;;;5.07;1.42;;;17.90;99.90;;;;;;5103600;27;20087;-63
2021/09/16 11:04:54;;;;;;;4.95;1.20;;;18.00;99.90;;;;;;5095903;28;20048;-63
2021/09/16 11:07:33;;;;;;;4.65;1.58;;;18.00;99.90;;;;;;5103504;27;20057;-63
2021/09/16 11:10:21;;;;;;;4.90;1.50;;;18.00;99.90;;;;;;5097242;28;20048;-63
2021/09/16 11:12:56;;;;;;;4.60;1.38;;;17.90;99.90;;;;;;5040352;28;20048;-63
2021/09/16 11:15:31;;;;;;;4.57;1.30;;;17.80;99.90;;;;;;5090655;27;20043;-63
2021/09/16 11:18:06;;;;;;;7.88;2.08;;;17.90;99.90;;;;;;5125229;27;20044;-63
2021/09/16 11:20:32;;;;;;;4.28;1.30;;;17.80;99.90;;;;;;5094138;27;20048;-64
2021/09/16 11:22:58;;;;;;;6.40;1.30;;;17.80;99.90;;;;;;5125034;27;20051;-64
2021/09/16 11:25:25;;;;;;;3.45;1.40;;;17.90;99.90;;;;;;5093361;27;20040;-63
2021/09/16 11:27:55;;;;;;;5.38;1.50;;;18.00;99.90;;;;;;5129155;27;20078;-63
2021/09/16 11:30:21;;;;;;;;;;;18.20;99.90;;;;;;5088499;27;20420;-64
2021/09/16 11:32:48;;;;;;;3.13;1.10;;;18.40;99.90;;;;;;5095370;28;19920;-64
2021/09/16 11:35:16;;;;;;;4.25;1.20;;;18.50;99.90;;;;;;5095773;28;20043;-64
2021/09/16 11:37:46;;;;;;;3.13;1.40;;;18.50;99.90;;;;;;5129730;27;20560;-64
2021/09/16 11:40:11;;;;;;;;;;;18.50;99.90;;;;;;5105661;28;20044;-63
2021/09/16 11:42:45;;;;;;;2.90;1.30;;;18.50;99.90;;;;;;5075325;28;19980;-63
2021/09/16 11:45:17;;;;;;;4.68;1.25;;;18.50;99.90;;;;;;5099447;28;20093;-64
2021/09/16 11:47:53;;;;;;;4.07;1.40;;;18.50;99.90;;;;;;5087212;28;20062;-63
2021/09/16 11:50:25;;;;;;;2.67;1.20;;;18.40;99.90;;;;;;5068536;27;20050;-64
2021/09/16 11:53:11;;;;;;;4.20;1.38;;;18.30;99.90;;;;;;5091042;28;20173;-63
2021/09/16 11:55:42;;;;;;;3.47;1.10;;;18.30;99.90;;;;;;5094980;27;20092;-63
2021/09/16 11:58:19;;;;;;;5.05;1.33;;;18.10;99.90;;;;;;5114219;27;20459;-63
2021/09/16 12:00:51;;;;;;;3.20;1.30;;;18.00;99.90;;;;;;5077193;27;20044;-64
2021/09/16 12:03:22;;;;;;;4.35;1.33;;;18.00;99.90;;;;;;5104159;28;20055;-64
2021/09/16 12:06:01;;;;;;;4.20;1.58;;;18.00;99.90;;;;;;5086892;28;20058;-64
2021/09/16 12:08:38;;;;;;;3.58;1.23;;;18.10;99.90;;;;;;5102155;28;20519;-63
2021/09/16 12:11:29;;;;;;;3.40;1.45;;;18.00;99.90;;;;;;5095351;27;20058;-64
2021/09/16 12:14:00;;;;;;;3.50;1.42;;;18.10;99.90;;;;;;5104500;28;20056;-63
2021/09/16 12:16:34;;;;;;;3.65;1.77;;;18.10;99.90;;;;;;5089117;28;20054;-63
2021/09/16 12:19:06;;;;;;;5.70;1.50;;;18.30;99.90;;;;;;5080677;28;20448;-63
2021/09/16 12:21:37;;;;;;;4.65;1.33;;;18.40;99.90;;;;;;5086863;27;20062;-63
2021/09/16 12:24:08;;;;;;;3.33;1.60;;;18.60;99.90;;;;;;5088278;28;20050;-63
2021/09/16 12:26:49;;;;;;;3.40;1.40;;;18.70;99.90;;;;;;5099843;27;20047;-63
2021/09/16 12:29:22;;;;;;;5.32;1.73;;;18.80;99.90;;;;;;5081295;28;20052;-64
2021/09/16 12:31:57;;;;;;;3.75;1.55;;;19.00;99.90;;;;;;5092731;27;20517;-63
2021/09/16 12:34:28;;;;;;;4.78;1.30;;;19.00;99.90;;;;;;5096961;27;20041;-64
2021/09/16 12:36:59;;;;;;;4.03;1.60;;;19.20;99.90;;;;;;5088593;27;20051;-63
2021/09/16 12:39:26;;;;;;;4.28;1.45;;;19.10;99.90;;;;;;5080808;28;21687;-64
2021/09/16 12:42:00;;;;;;;4.93;1.70;;;19.10;99.90;;;;;;5087116;27;20074;-63
2021/09/16 12:44:29;;;;;;;5.13;1.55;;;19.30;99.90;;;;;;5061761;28;20127;-63
2021/09/16 12:47:05;;;;;;;5.00;1.53;;;19.50;99.90;;;;;;5099614;27;20051;-64
2021/09/16 12:49:38;;;;;;;3.42;1.13;;;19.40;99.90;;;;;;5093762;28;20056;-63
2021/09/16 12:52:13;;;;;;;6.18;1.40;;;19.30;99.90;;;;;;5084322;28;20467;-63